createdAt,value
2017-09-23T00:00:03.594Z,9.5
2017-09-23T00:15:03.292Z,9.5
2017-09-23T00:30:03.033Z,9.5
2017-09-23T00:45:02.799Z,9.4
2017-09-23T01:00:04.034Z,9.4
2017-09-23T01:15:02.839Z,9.4
2017-09-23T01:30:02.711Z,9.4
2017-09-23T01:45:03.439Z,9.3
2017-09-23T02:00:03.183Z,9.3
2017-09-23T02:15:02.819Z,9.2
2017-09-23T02:30:03.864Z,9.2
2017-09-23T02:45:03.826Z,9.2
2017-09-23T03:00:03.678Z,9.2
2017-09-23T03:15:03.357Z,9.2
2017-09-23T03:30:03.099Z,9.2
2017-09-23T03:45:02.827Z,9.2
2017-09-23T04:00:03.784Z,9.1
2017-09-23T04:15:03.411Z,9.1
2017-09-23T04:30:03.308Z,9.1
2017-09-23T04:45:02.931Z,9.1
2017-09-23T05:00:03.547Z,9.1
2017-09-23T05:15:03.462Z,9.1
2017-09-23T05:30:03.592Z,9.1
2017-09-23T05:45:03.323Z,9.1
2017-09-23T06:00:03.073Z,9.1
2017-09-23T06:15:02.734Z,9.1
2017-09-23T06:30:03.593Z,9.1
2017-09-23T06:45:03.384Z,9.1
2017-09-23T07:00:03.144Z,9.2
2017-09-23T07:15:02.975Z,9.2
2017-09-23T07:30:02.718Z,9.2
2017-09-23T07:45:03.355Z,9.2
2017-09-23T08:00:02.916Z,9.2
2017-09-23T08:15:02.643Z,9.3
2017-09-23T08:30:03.488Z,9.3
2017-09-23T08:45:03.190Z,9.4
2017-09-23T09:00:02.986Z,9.4
2017-09-23T09:15:02.599Z,9.4
2017-09-23T09:30:03.310Z,9.5
2017-09-23T09:45:02.936Z,9.6
2017-09-23T10:00:02.701Z,9.6
2017-09-23T10:15:03.333Z,9.7
2017-09-23T10:30:03.177Z,9.8
2017-09-23T10:45:02.903Z,9.8
2017-09-23T11:00:03.627Z,9.9
2017-09-23T11:15:03.665Z,9.9
2017-09-23T11:30:03.346Z,10
2017-09-23T11:45:03.018Z,10.1
2017-09-23T12:00:02.630Z,10.1
2017-09-23T12:15:03.658Z,10.2
2017-09-23T12:30:03.468Z,10.2
2017-09-23T12:45:03.192Z,10.3
2017-09-23T13:00:03.225Z,10.4
2017-09-23T13:15:03.333Z,10.4
2017-09-23T13:30:03.304Z,10.5
2017-09-23T13:45:03.082Z,10.6
2017-09-23T14:00:02.950Z,10.6
2017-09-23T14:15:02.718Z,10.7
2017-09-23T14:30:03.527Z,10.8
2017-09-23T14:45:03.250Z,10.8
2017-09-23T15:00:02.998Z,10.8
2017-09-23T15:15:02.750Z,10.9
2017-09-23T15:30:03.474Z,10.9
2017-09-23T15:45:03.080Z,10.9
2017-09-23T16:00:02.730Z,10.9
2017-09-23T16:15:03.529Z,10.9
2017-09-23T16:30:03.291Z,10.9
2017-09-23T16:45:02.925Z,11
2017-09-23T17:00:03.738Z,11
2017-09-23T17:15:03.441Z,11
2017-09-23T17:30:03.139Z,10.9
2017-09-23T17:45:02.793Z,10.9
2017-09-23T18:00:03.705Z,10.9
2017-09-23T18:15:03.371Z,10.9
2017-09-23T18:30:03.572Z,10.9
2017-09-23T18:45:03.370Z,10.9
2017-09-23T19:00:03.543Z,10.9
2017-09-23T19:15:03.095Z,10.9
2017-09-23T19:30:03.434Z,10.8
2017-09-23T19:45:03.084Z,10.8
2017-09-23T20:00:02.868Z,10.8
2017-09-23T20:15:03.582Z,10.8
2017-09-23T20:30:03.336Z,10.7
2017-09-23T20:45:03.087Z,10.6
2017-09-23T21:00:02.759Z,10.6
2017-09-23T21:15:03.642Z,10.6
2017-09-23T21:30:03.326Z,10.5
2017-09-23T21:45:03.098Z,10.4
2017-09-23T22:00:02.758Z,10.4
2017-09-23T22:15:03.626Z,10.4
2017-09-23T22:30:03.401Z,10.3
2017-09-23T22:45:03.109Z,10.2
2017-09-23T23:00:02.920Z,10.2
2017-09-23T23:15:03.704Z,10.2
2017-09-23T23:30:03.669Z,10.1
2017-09-23T23:45:03.391Z,10.1
